Time;durP1;ratioP1;P1;durP2;ratioP2;P2;SDS_P1;SDS_P2;PMS_P1;PMS_P2;Temp;Humidity;BMP_temperature;BMP_pressure;BME280_temperature;BME280_humidity;BME280_pressure;Samples;Min_cycle;Max_cycle;Signal;HPM_P1;HPM_P2
2023/09/17 00:01:10;;;;;;;7.28;6.50;;;;;;;22.72;60.13;101216.63;5034475;28;20022;-47
2023/09/17 00:03:37;;;;;;;7.38;6.03;;;;;;;22.54;61.58;101219.94;5034200;28;20103;-47
2023/09/17 00:06:04;;;;;;;7.65;5.90;;;;;;;22.66;60.38;101209.56;5034562;28;20037;-49
2023/09/17 00:08:31;;;;;;;8.40;6.70;;;;;;;22.65;60.47;101214.19;5034265;28;20021;-50
2023/09/17 00:10:57;;;;;;;7.05;6.10;;;;;;;22.65;60.31;101216.09;5034402;28;20378;-50
2023/09/17 00:13:23;;;;;;;11.07;6.72;;;;;;;22.38;60.93;101209.09;5034233;28;20022;-49
2023/09/17 00:15:52;;;;;;;7.80;6.45;;;;;;;22.52;61.08;101208.50;5034083;28;20025;-49
2023/09/17 00:18:18;;;;;;;9.63;6.50;;;;;;;22.56;60.70;101204.13;5033886;28;20026;-51
2023/09/17 00:20:44;;;;;;;9.07;6.45;;;;;;;22.52;60.45;101214.75;5034274;28;20418;-48
2023/09/17 00:23:10;;;;;;;8.43;6.80;;;;;;;22.47;60.42;101200.31;5033899;28;20025;-51
2023/09/17 00:25:37;;;;;;;7.60;6.82;;;;;;;22.31;61.01;101205.81;5033838;28;20041;-51
2023/09/17 00:28:03;;;;;;;10.27;7.90;;;;;;;22.19;61.84;101202.56;5034223;28;20445;-51
2023/09/17 00:30:30;;;;;;;9.93;6.55;;;;;;;22.17;61.75;101199.31;5033685;28;20025;-51
2023/09/17 00:32:56;;;;;;;8.45;7.20;;;;;;;22.06;62.21;101209.38;5032897;28;20064;-51
2023/09/17 00:35:22;;;;;;;8.27;7.05;;;;;;;22.09;62.39;101207.97;5033343;28;20044;-50
2023/09/17 00:37:50;;;;;;;8.65;7.43;;;;;;;22.08;61.77;101214.53;5033974;28;20052;-51
2023/09/17 00:40:16;;;;;;;7.90;7.03;;;;;;;22.11;62.29;101211.31;5033671;28;20032;-51
2023/09/17 00:42:43;;;;;;;9.82;7.20;;;;;;;21.94;62.72;101214.28;5033537;28;20025;-50
2023/09/17 00:45:11;;;;;;;9.43;7.78;;;;;;;21.82;62.80;101216.44;5033450;28;20478;-48
2023/09/17 00:47:38;;;;;;;8.50;7.25;;;;;;;21.71;62.98;101212.06;5033461;28;20105;-48
2023/09/17 00:50:07;;;;;;;8.38;7.18;;;;;;;21.76;63.87;101221.06;5033562;28;20032;-49
2023/09/17 00:52:33;;;;;;;8.60;6.50;;;;;;;21.63;64.06;101212.63;5033283;28;20501;-50
2023/09/17 00:55:00;;;;;;;7.88;6.50;;;;;;;21.52;64.00;101225.41;5033568;28;20203;-51
2023/09/17 00:57:27;;;;;;;8.27;6.20;;;;;;;21.47;64.17;101236.28;5033293;28;20421;-50
2023/09/17 00:59:53;;;;;;;8.88;6.65;;;;;;;21.30;64.60;101223.72;5033209;28;20390;-48
2023/09/17 01:02:21;;;;;;;8.45;7.00;;;;;;;21.09;65.86;101224.69;5033316;28;20421;-50
2023/09/17 01:04:50;;;;;;;7.00;6.25;;;;;;;20.91;66.51;101228.72;5033185;28;20021;-51
2023/09/17 01:07:22;;;;;;;8.85;6.60;;;;;;;20.91;67.26;101227.91;5033243;28;20124;-47
2023/09/17 01:09:50;;;;;;;12.80;6.57;;;;;;;20.92;67.73;101232.25;5033137;28;20033;-50
2023/09/17 01:12:17;;;;;;;8.02;6.30;;;;;;;20.80;67.74;101235.19;5033175;28;20036;-47
2023/09/17 01:14:46;;;;;;;8.48;6.32;;;;;;;20.75;68.34;101244.16;5032875;28;20116;-51
2023/09/17 01:17:13;;;;;;;9.10;7.10;;;;;;;20.63;69.06;101237.28;5032954;28;20083;-51
2023/09/17 01:19:42;;;;;;;8.18;6.30;;;;;;;20.50;69.44;101238.56;5032658;28;20108;-50
2023/09/17 01:22:26;;;;;;;7.78;6.60;;;;;;;20.35;70.23;101241.97;5033038;28;20105;-51
2023/09/17 01:25:29;;;;;;;8.77;7.28;;;;;;;20.13;70.77;101252.13;5033103;28;20032;-49
2023/09/17 01:27:56;;;;;;;10.13;6.55;;;;;;;20.25;71.10;101241.91;5032871;28;20111;-52
2023/09/17 01:30:23;;;;;;;8.18;6.80;;;;;;;20.16;71.43;101251.63;5032790;28;20029;-50
2023/09/17 01:32:49;;;;;;;8.15;6.07;;;;;;;20.18;70.78;101247.56;5032772;28;20393;-51
2023/09/17 01:35:17;;;;;;;8.65;6.38;;;;;;;20.09;71.24;101251.81;5033196;28;20571;-48
2023/09/17 01:37:59;;;;;;;8.80;6.40;;;;;;;19.95;72.11;101250.63;5032934;28;20454;-51
2023/09/17 01:40:26;;;;;;;8.43;6.60;;;;;;;19.96;72.26;101250.38;5032881;28;20032;-51
2023/09/17 01:42:55;;;;;;;6.55;5.22;;;;;;;19.78;72.50;101254.28;5032568;28;20462;-48
2023/09/17 01:45:21;;;;;;;8.00;5.75;;;;;;;19.89;72.87;101257.09;5036012;28;20516;-48
2023/09/17 01:47:49;;;;;;;7.72;5.40;;;;;;;19.74;72.98;101252.34;5036614;28;20017;-49
2023/09/17 01:50:23;;;;;;;9.13;5.93;;;;;;;19.75;72.92;101257.50;5036811;28;20021;-48
2023/09/17 01:52:49;;;;;;;7.38;5.95;;;;;;;19.65;73.09;101257.41;5036748;28;20044;-47
2023/09/17 01:55:15;;;;;;;12.68;6.25;;;;;;;19.62;73.23;101252.50;5036623;28;20493;-50
2023/09/17 01:57:42;;;;;;;8.18;5.85;;;;;;;19.68;73.45;101253.38;5036705;28;20044;-51
2023/09/17 02:00:16;;;;;;;7.70;5.28;;;;;;;19.67;73.25;101252.53;5036728;28;20032;-49
2023/09/17 02:02:53;;;;;;;9.52;5.78;;;;;;;19.39;75.14;101260.91;5036566;28;20036;-46
2023/09/17 02:05:25;;;;;;;8.32;5.88;;;;;;;19.42;75.04;101260.38;5036451;28;20046;-47
2023/09/17 02:07:52;;;;;;;7.50;5.68;;;;;;;19.29;75.19;101260.78;5036787;28;20505;-49
2023/09/17 02:10:18;;;;;;;6.40;5.30;;;;;;;19.36;74.76;101267.66;5036385;28;20381;-46
2023/09/17 02:12:45;;;;;;;7.88;5.50;;;;;;;19.26;75.32;101268.34;5036415;28;20018;-48
2023/09/17 02:15:11;;;;;;;7.40;5.32;;;;;;;19.13;75.98;101270.63;5037541;28;20140;-50
2023/09/17 02:17:38;;;;;;;7.60;5.68;;;;;;;19.15;75.98;101280.16;5037191;28;20029;-46
2023/09/17 02:20:10;;;;;;;7.15;6.22;;;;;;;19.11;76.41;101270.88;5036489;28;20075;-49
2023/09/17 02:22:38;;;;;;;6.93;5.60;;;;;;;19.14;76.54;101285.84;5036157;28;20025;-47
2023/09/17 02:25:05;;;;;;;11.23;6.38;;;;;;;18.93;76.97;101279.31;5036052;28;20021;-49
2023/09/17 02:27:33;;;;;;;9.15;5.80;;;;;;;19.05;76.94;101281.94;5036039;28;20036;-47
2023/09/17 02:29:59;;;;;;;7.90;5.57;;;;;;;18.96;77.87;101287.78;5035990;28;20108;-47
2023/09/17 02:32:26;;;;;;;8.20;5.97;;;;;;;19.03;77.44;101289.47;5036927;28;20033;-45
2023/09/17 02:34:52;;;;;;;7.13;5.65;;;;;;;18.90;77.89;101286.06;5035987;28;20096;-47
2023/09/17 02:37:18;;;;;;;7.55;5.47;;;;;;;18.93;78.30;101285.59;5035622;28;20508;-45
2023/09/17 02:39:45;;;;;;;7.80;5.75;;;;;;;18.92;78.35;101291.25;5035707;28;20029;-46
2023/09/17 02:42:11;;;;;;;9.32;6.40;;;;;;;18.87;78.93;101297.41;5036142;28;20408;-45
2023/09/17 02:44:38;;;;;;;9.40;6.22;;;;;;;18.93;79.00;101295.59;5035988;28;20064;-46
2023/09/17 02:47:04;;;;;;;10.60;6.32;;;;;;;18.92;79.21;101288.53;5035642;28;20156;-45
2023/09/17 02:49:31;;;;;;;9.70;6.00;;;;;;;19.00;79.24;101296.25;5035552;28;20481;-46
2023/09/17 02:51:58;;;;;;;9.63;6.25;;;;;;;18.95;79.49;101298.88;5035574;28;20042;-46
2023/09/17 02:54:24;;;;;;;10.90;6.40;;;;;;;18.92;79.69;101293.94;5035608;28;20113;-45
2023/09/17 02:56:50;;;;;;;9.55;6.38;;;;;;;18.97;79.87;101299.44;5034602;28;20037;-46
2023/09/17 02:59:16;;;;;;;7.30;6.28;;;;;;;18.73;80.86;101294.25;5035385;28;20120;-45
2023/09/17 03:01:43;;;;;;;11.13;6.97;;;;;;;18.66;81.30;101304.41;5035285;28;20071;-47
2023/09/17 03:04:09;;;;;;;13.35;6.78;;;;;;;18.72;80.80;101311.59;5035393;28;20026;-46
2023/09/17 03:06:36;;;;;;;9.25;5.88;;;;;;;18.80;80.80;101310.34;5035371;28;20055;-46
2023/09/17 03:09:11;;;;;;;6.63;5.88;;;;;;;18.87;80.59;101308.25;5035523;28;20108;-46
2023/09/17 03:11:39;;;;;;;12.35;6.68;;;;;;;18.86;80.64;101308.53;5035347;28;20119;-45
2023/09/17 03:14:06;;;;;;;7.85;6.43;;;;;;;18.84;81.28;101307.97;5035111;28;20056;-46
2023/09/17 03:16:33;;;;;;;9.45;6.65;;;;;;;18.84;81.18;101313.38;5035411;28;20056;-46
2023/09/17 03:19:00;;;;;;;11.43;7.38;;;;;;;18.80;82.00;101313.03;5035027;28;20128;-45
2023/09/17 03:21:26;;;;;;;8.90;7.18;;;;;;;18.72;81.60;101311.59;5034951;28;20032;-45
2023/09/17 03:23:52;;;;;;;10.95;6.30;;;;;;;18.75;82.08;101320.28;5034964;28;20118;-46
2023/09/17 03:26:18;;;;;;;9.70;6.38;;;;;;;18.78;81.67;101314.38;5034859;28;20031;-45
2023/09/17 03:28:45;;;;;;;8.52;6.40;;;;;;;18.67;82.74;101322.34;5034954;28;20018;-46
2023/09/17 03:31:11;;;;;;;10.57;6.78;;;;;;;18.67;82.45;101318.78;5000648;28;20061;-49
2023/09/17 03:33:37;;;;;;;8.95;6.82;;;;;;;18.76;82.03;101321.91;5034862;28;20030;-46
2023/09/17 03:36:04;;;;;;;10.48;6.97;;;;;;;18.82;82.11;101320.94;5034535;28;20556;-49
2023/09/17 03:38:30;;;;;;;10.23;7.13;;;;;;;18.68;82.94;101324.00;5034761;28;20026;-49
2023/09/17 03:40:59;;;;;;;10.15;6.70;;;;;;;18.63;83.23;101323.06;5034768;28;20036;-47
2023/09/17 03:43:27;;;;;;;8.77;6.53;;;;;;;18.83;82.82;101330.72;5034659;28;20029;-48
2023/09/17 03:45:53;;;;;;;8.75;6.20;;;;;;;18.75;82.83;101328.41;5034570;28;20025;-50
2023/09/17 03:48:20;;;;;;;8.48;6.63;;;;;;;18.67;82.34;101335.91;5034562;28;20021;-49
2023/09/17 03:50:46;;;;;;;10.68;6.97;;;;;;;18.68;82.50;101334.03;5034553;28;20025;-49
2023/09/17 03:53:13;;;;;;;11.60;7.35;;;;;;;18.67;83.26;101340.50;5016807;28;20024;-49
2023/09/17 03:55:40;;;;;;;9.60;6.53;;;;;;;18.76;82.57;101341.72;5034626;28;20377;-47
2023/09/17 03:58:08;;;;;;;9.90;6.90;;;;;;;18.79;82.55;101337.72;5034588;28;20029;-48
2023/09/17 04:00:35;;;;;;;8.95;6.72;;;;;;;18.86;82.41;101344.59;5034212;28;20373;-46
2023/09/17 04:03:04;;;;;;;7.40;6.18;;;;;;;18.71;83.13;101339.78;5034283;28;20493;-46
2023/09/17 04:05:30;;;;;;;11.48;6.63;;;;;;;18.77;82.38;101340.69;5034176;28;20053;-47
2023/09/17 04:07:57;;;;;;;10.80;6.68;;;;;;;18.73;82.93;101344.94;5033062;28;20392;-46
2023/09/17 04:10:24;;;;;;;7.70;6.47;;;;;;;18.69;83.04;101336.47;5034036;28;20112;-47
2023/09/17 04:12:50;;;;;;;10.30;7.13;;;;;;;18.70;83.33;101348.16;5034237;28;20029;-48
2023/09/17 04:15:20;;;;;;;9.50;6.93;;;;;;;18.56;83.78;101347.63;5034006;28;20021;-47
2023/09/17 04:17:48;;;;;;;8.30;6.53;;;;;;;18.75;83.04;101353.66;5033985;28;20478;-46
2023/09/17 04:20:18;;;;;;;9.25;6.63;;;;;;;18.45;83.91;101356.69;5033736;28;20029;-47
2023/09/17 04:22:49;;;;;;;8.77;6.22;;;;;;;18.49;83.34;101360.53;5033742;28;20025;-46
2023/09/17 04:25:17;;;;;;;9.73;6.43;;;;;;;18.45;82.95;101354.78;5034245;28;20041;-46
2023/09/17 04:27:44;;;;;;;7.07;5.95;;;;;;;18.52;82.52;101346.47;5033832;28;20048;-47
2023/09/17 04:30:13;;;;;;;8.48;6.70;;;;;;;18.48;82.58;101354.28;5033606;28;20026;-46
2023/09/17 04:32:41;;;;;;;9.65;6.22;;;;;;;18.43;83.09;101347.94;5033640;28;20440;-46
2023/09/17 04:35:15;;;;;;;9.60;6.38;;;;;;;18.41;83.21;101347.38;5033552;28;20386;-47
2023/09/17 04:37:42;;;;;;;8.27;6.88;;;;;;;18.29;83.89;101343.94;5034013;28;20037;-47
2023/09/17 04:40:11;;;;;;;8.57;6.43;;;;;;;18.42;83.93;101341.72;5033545;28;20029;-46
2023/09/17 04:42:38;;;;;;;9.95;6.72;;;;;;;18.30;84.59;101351.81;5033493;28;20033;-46
2023/09/17 04:45:06;;;;;;;9.68;7.07;;;;;;;18.34;84.15;101352.16;5033797;28;20030;-47
2023/09/17 04:47:37;;;;;;;9.18;7.57;;;;;;;18.32;84.02;101354.25;5034094;28;20036;-47
2023/09/17 04:50:04;;;;;;;13.43;7.38;;;;;;;18.40;84.42;101340.31;5033754;28;20056;-48
2023/09/17 04:52:31;;;;;;;10.20;6.82;;;;;;;18.19;84.95;101342.69;5033338;28;20482;-46
2023/09/17 04:54:57;;;;;;;10.50;7.18;;;;;;;18.32;85.61;101333.44;5033255;28;20056;-46
2023/09/17 04:57:23;;;;;;;11.95;6.80;;;;;;;18.22;85.36;101337.84;5033638;28;20025;-46
2023/09/17 04:59:49;;;;;;;9.38;7.13;;;;;;;18.27;85.30;101337.94;5033257;28;20025;-46
2023/09/17 05:02:16;;;;;;;11.65;7.20;;;;;;;18.09;85.77;101339.78;5033137;28;20555;-46
2023/09/17 05:04:43;;;;;;;9.32;6.97;;;;;;;18.08;85.38;101340.84;5033541;28;20026;-46
2023/09/17 05:07:09;;;;;;;9.38;7.43;;;;;;;18.25;85.85;101337.34;5031979;28;20120;-47
2023/09/17 05:09:35;;;;;;;12.88;7.28;;;;;;;18.18;86.95;101343.75;5033243;28;20021;-47
2023/09/17 05:12:02;;;;;;;12.85;7.93;;;;;;;18.13;88.07;101340.94;5033024;28;20405;-46
2023/09/17 05:14:28;;;;;;;12.20;8.07;;;;;;;18.12;89.52;101341.19;5033347;28;20021;-46
2023/09/17 05:16:55;;;;;;;11.88;7.40;;;;;;;18.03;90.96;101334.53;5033188;28;20497;-46
2023/09/17 05:19:21;;;;;;;14.50;8.15;;;;;;;17.77;92.77;101342.19;5032702;28;20124;-46
2023/09/17 05:21:47;;;;;;;9.70;7.60;;;;;;;17.75;92.24;101338.88;5033600;28;20021;-47
2023/09/17 05:24:14;;;;;;;13.18;8.55;;;;;;;17.73;92.36;101343.72;5032942;28;20390;-47
2023/09/17 05:26:40;;;;;;;12.27;8.38;;;;;;;17.80;92.71;101340.88;5032922;28;20436;-46
2023/09/17 05:29:10;;;;;;;12.75;9.05;;;;;;;17.71;93.04;101342.28;5033203;28;20022;-47
2023/09/17 05:31:37;;;;;;;14.02;8.52;;;;;;;17.65;93.19;101344.88;5032924;28;20377;-48
2023/09/17 05:34:03;;;;;;;13.15;9.48;;;;;;;17.33;96.28;101341.81;5032880;28;20414;-47
2023/09/17 05:36:30;;;;;;;11.90;8.32;;;;;;;17.65;93.89;101346.78;5032582;28;20397;-49
2023/09/17 05:38:57;;;;;;;13.43;9.52;;;;;;;17.44;94.85;101347.44;5032921;28;20025;-47
2023/09/17 05:41:23;;;;;;;12.20;8.57;;;;;;;17.51;95.09;101337.31;5032719;28;20041;-47
2023/09/17 05:43:50;;;;;;;11.38;8.40;;;;;;;17.46;94.90;101343.44;5032693;28;20057;-48
2023/09/17 05:46:16;;;;;;;12.77;9.05;;;;;;;17.42;95.21;101340.38;5032730;28;20076;-46
2023/09/17 05:48:42;;;;;;;12.55;8.90;;;;;;;17.52;94.14;101345.16;5032571;28;20030;-46
2023/09/17 05:51:08;;;;;;;10.07;7.68;;;;;;;17.57;93.92;101342.56;5032555;28;20052;-46
2023/09/17 05:53:35;;;;;;;11.82;8.30;;;;;;;17.28;95.68;101341.72;5032613;28;20021;-46
2023/09/17 05:56:04;;;;;;;8.52;7.20;;;;;;;17.31;95.76;101337.69;5032825;28;20381;-46
2023/09/17 05:58:30;;;;;;;10.75;7.30;;;;;;;17.21;95.58;101326.66;5032607;28;20022;-46
2023/09/17 06:00:56;;;;;;;9.05;7.45;;;;;;;17.35;94.87;101334.28;5032562;28;20501;-47
2023/09/17 06:03:23;;;;;;;11.20;7.57;;;;;;;17.13;95.19;101328.66;5032474;28;20056;-46
2023/09/17 06:05:49;;;;;;;8.75;6.82;;;;;;;17.03;95.88;101341.97;5032872;28;20056;-46
2023/09/17 06:08:15;;;;;;;8.85;7.38;;;;;;;16.99;95.45;101332.69;5032437;28;20438;-48
2023/09/17 06:10:42;;;;;;;10.40;7.90;;;;;;;17.01;96.37;101335.16;5032473;28;20104;-46
2023/09/17 06:13:08;;;;;;;11.93;8.13;;;;;;;16.94;96.38;101338.00;5032357;28;20022;-45
2023/09/17 06:15:35;;;;;;;8.75;7.85;;;;;;;16.98;96.17;101336.44;5032359;28;20056;-46
2023/09/17 06:18:01;;;;;;;10.45;8.38;;;;;;;17.07;95.46;101337.72;5032517;28;20071;-46
2023/09/17 06:20:27;;;;;;;10.40;7.78;;;;;;;17.17;95.36;101339.84;5032274;28;20389;-46
2023/09/17 06:22:54;;;;;;;10.13;7.80;;;;;;;17.04;95.65;101342.78;5032321;28;20033;-47
2023/09/17 06:25:23;;;;;;;9.90;8.32;;;;;;;16.96;96.10;101341.28;5032161;28;20500;-46
2023/09/17 06:27:50;;;;;;;9.38;7.85;;;;;;;16.99;96.45;101339.97;5032262;28;20029;-45
2023/09/17 06:30:17;;;;;;;10.02;8.50;;;;;;;16.95;96.20;101336.09;5032295;28;20117;-46
2023/09/17 06:32:43;;;;;;;12.48;8.95;;;;;;;16.99;96.31;101343.50;5035622;28;20121;-46
2023/09/17 06:35:10;;;;;;;9.57;8.38;;;;;;;17.05;96.04;101342.56;5035704;28;20394;-47
2023/09/17 06:37:36;;;;;;;9.82;8.02;;;;;;;16.97;96.14;101342.09;5035768;28;20394;-46
2023/09/17 06:40:03;;;;;;;11.18;8.52;;;;;;;16.83;96.92;101342.34;5035836;28;20251;-47
2023/09/17 06:42:29;;;;;;;11.55;7.78;;;;;;;17.09;96.33;101334.78;5035689;28;20080;-46
2023/09/17 06:44:55;;;;;;;9.43;8.43;;;;;;;16.99;95.99;101330.00;5035680;28;20029;-46
2023/09/17 06:47:22;;;;;;;11.48;8.48;;;;;;;16.93;96.79;101330.91;5035543;28;20112;-47
2023/09/17 06:49:48;;;;;;;9.23;7.32;;;;;;;16.90;96.52;101342.22;5035548;28;20017;-49
2023/09/17 06:52:14;;;;;;;7.75;6.78;;;;;;;16.85;97.34;101342.09;5035618;28;20389;-47
2023/09/17 06:54:41;;;;;;;7.68;6.97;;;;;;;16.89;96.90;101337.88;5035954;28;20454;-52
2023/09/17 06:57:08;;;;;;;10.23;7.25;;;;;;;16.83;97.33;101344.22;5035543;28;20061;-53
2023/09/17 06:59:34;;;;;;;8.88;6.80;;;;;;;16.73;97.83;101338.56;5035383;28;20087;-51
2023/09/17 07:02:00;;;;;;;8.55;7.68;;;;;;;16.72;98.25;101334.22;5035230;28;20367;-48
2023/09/17 07:04:27;;;;;;;8.40;7.43;;;;;;;16.83;97.27;101331.53;5035465;28;20448;-50
2023/09/17 07:06:54;;;;;;;8.73;6.85;;;;;;;16.81;97.53;101339.03;5035297;28;20036;-50
2023/09/17 07:09:20;;;;;;;8.82;7.22;;;;;;;16.86;96.72;101332.91;5035187;28;20492;-51
2023/09/17 07:11:47;;;;;;;8.13;6.78;;;;;;;16.87;97.20;101338.09;5035327;28;20441;-49
2023/09/17 07:14:13;;;;;;;8.48;6.53;;;;;;;16.88;96.69;101330.81;5035287;28;20031;-48
2023/09/17 07:16:39;;;;;;;7.72;6.97;;;;;;;16.87;96.67;101331.84;5035359;28;20029;-48
2023/09/17 07:19:05;;;;;;;7.55;6.78;;;;;;;16.78;96.94;101328.69;5035698;28;20030;-51
2023/09/17 07:21:32;;;;;;;8.23;7.07;;;;;;;16.78;97.41;101336.00;5035306;28;20025;-48
2023/09/17 07:23:58;;;;;;;7.65;6.85;;;;;;;16.59;98.43;101333.34;5035826;28;20339;-49
2023/09/17 07:26:25;;;;;;;7.57;6.72;;;;;;;16.58;98.60;101323.59;5035424;28;20496;-50
2023/09/17 07:28:51;;;;;;;9.30;8.02;;;;;;;16.52;98.33;101324.53;5034899;28;20023;-51
2023/09/17 07:31:17;;;;;;;8.60;7.10;;;;;;;16.75;97.84;101328.34;5034844;28;20040;-49
2023/09/17 07:33:44;;;;;;;9.90;6.57;;;;;;;16.74;97.47;101327.53;5034839;28;20125;-52
2023/09/17 07:36:11;;;;;;;7.13;6.38;;;;;;;16.71;97.01;101328.00;5034711;28;20068;-49
2023/09/17 07:38:37;;;;;;;7.00;6.30;;;;;;;16.77;96.80;101324.34;5034992;28;20036;-49
2023/09/17 07:41:04;;;;;;;6.85;6.05;;;;;;;16.66;97.07;101330.56;5016996;28;20032;-49
2023/09/17 07:43:30;;;;;;;6.18;5.55;;;;;;;16.69;96.35;101331.94;5034256;28;20029;-49
2023/09/17 07:45:56;;;;;;;5.82;5.30;;;;;;;16.69;96.58;101332.78;5034652;28;20061;-50
2023/09/17 07:48:25;;;;;;;7.47;6.30;;;;;;;16.56;96.67;101325.72;5034779;28;20017;-51
2023/09/17 07:50:59;;;;;;;6.13;5.32;;;;;;;16.70;96.19;101330.88;5034635;28;20033;-50
2023/09/17 07:53:25;;;;;;;5.72;4.75;;;;;;;16.55;96.40;101318.69;5034801;28;20029;-53
2023/09/17 07:55:52;;;;;;;6.93;5.38;;;;;;;16.53;96.04;101326.19;5034303;28;20026;-54
2023/09/17 07:58:19;;;;;;;4.95;4.55;;;;;;;16.64;94.47;101329.94;5034448;28;20022;-55
2023/09/17 08:00:45;;;;;;;5.28;4.45;;;;;;;16.52;94.34;101329.13;5016558;28;20422;-55
2023/09/17 08:03:16;;;;;;;4.65;4.15;;;;;;;16.60;94.23;101324.19;5034392;28;20025;-54
2023/09/17 08:05:47;;;;;;;5.95;4.53;;;;;;;16.71;93.04;101324.44;5034519;28;20374;-54
2023/09/17 08:08:14;;;;;;;4.88;4.45;;;;;;;16.56;92.79;101323.03;5034299;28;20492;-54
2023/09/17 08:10:41;;;;;;;5.38;4.65;;;;;;;16.49;93.23;101333.13;5034217;28;20029;-53
2023/09/17 08:13:07;;;;;;;5.07;4.53;;;;;;;16.65;92.66;101328.88;5034529;28;20030;-54
2023/09/17 08:15:34;;;;;;;5.70;5.10;;;;;;;16.57;92.51;101329.25;5034272;28;20028;-55
2023/09/17 08:18:01;;;;;;;6.53;5.18;;;;;;;16.56;92.54;101324.91;5016238;28;20478;-54
2023/09/17 08:20:28;;;;;;;5.15;4.65;;;;;;;16.57;92.59;101327.34;5033895;28;20513;-54
2023/09/17 08:22:54;;;;;;;5.00;4.50;;;;;;;16.52;92.43;101340.75;5033915;28;20029;-54
2023/09/17 08:25:20;;;;;;;4.78;4.28;;;;;;;16.52;92.84;101332.63;5033826;28;20415;-54
2023/09/17 08:27:47;;;;;;;5.10;4.60;;;;;;;16.59;92.14;101330.66;5033939;28;20026;-54
2023/09/17 08:30:15;;;;;;;4.95;4.43;;;;;;;16.54;92.81;101330.53;5033786;28;20454;-53
2023/09/17 08:32:44;;;;;;;5.78;4.80;;;;;;;16.50;92.41;101329.34;5033736;28;20108;-51
2023/09/17 08:35:16;;;;;;;4.30;3.90;;;;;;;16.49;92.57;101327.72;5033953;28;20374;-52
2023/09/17 08:37:43;;;;;;;6.18;5.20;;;;;;;16.54;92.59;101333.22;5033651;28;20030;-51
2023/09/17 08:40:14;;;;;;;5.43;4.90;;;;;;;16.59;92.42;101335.22;5033587;28;20545;-48
2023/09/17 08:42:44;;;;;;;6.25;5.25;;;;;;;16.49;92.75;101335.81;5016044;28;20025;-54
2023/09/17 08:45:11;;;;;;;4.95;4.20;;;;;;;16.41;93.48;101333.44;5033489;28;20025;-52
2023/09/17 08:47:38;;;;;;;4.82;4.30;;;;;;;16.43;93.52;101335.91;5033483;28;20049;-52
2023/09/17 08:50:11;;;;;;;5.55;4.32;;;;;;;16.37;93.79;101337.66;5033386;28;20087;-52
2023/09/17 08:52:41;;;;;;;5.50;4.80;;;;;;;16.34;94.16;101335.44;5033341;28;20025;-52
2023/09/17 08:55:10;;;;;;;5.38;4.88;;;;;;;16.33;94.44;101331.09;5033590;28;20033;-51
2023/09/17 08:57:42;;;;;;;5.50;4.45;;;;;;;16.44;94.18;101333.00;5033119;28;20029;-52
2023/09/17 09:00:12;;;;;;;6.25;4.68;;;;;;;16.44;94.18;101333.00;5033296;28;20072;-52
2023/09/17 09:02:45;;;;;;;5.20;4.70;;;;;;;16.43;93.82;101325.91;5033192;28;20025;-49
2023/09/17 09:05:14;;;;;;;6.20;5.10;;;;;;;16.27;94.82;101326.63;5033156;28;20028;-52
2023/09/17 09:07:43;;;;;;;5.88;4.63;;;;;;;16.30;94.77;101320.75;5033465;28;20031;-52
2023/09/17 09:10:12;;;;;;;5.60;4.68;;;;;;;16.31;94.60;101325.09;5033160;28;20029;-52
2023/09/17 09:12:39;;;;;;;4.95;4.50;;;;;;;16.43;94.29;101320.53;5033119;28;20442;-49
2023/09/17 09:15:07;;;;;;;6.18;4.97;;;;;;;16.39;94.01;101322.06;5033023;28;20029;-50
2023/09/17 09:17:33;;;;;;;5.20;4.72;;;;;;;16.29;94.93;101324.50;5033348;28;20025;-51
2023/09/17 09:19:59;;;;;;;5.97;4.95;;;;;;;16.28;95.14;101326.38;5033311;28;20549;-53
2023/09/17 09:22:25;;;;;;;7.35;4.43;;;;;;;16.29;94.97;101327.22;5033323;28;20100;-54
2023/09/17 09:24:52;;;;;;;5.05;4.10;;;;;;;16.33;94.11;101336.50;5033012;28;20029;-54
2023/09/17 09:27:18;;;;;;;6.32;5.00;;;;;;;16.36;94.12;101330.63;5032936;28;20029;-55
2023/09/17 09:29:44;;;;;;;6.70;5.43;;;;;;;16.21;94.13;101325.69;5032974;28;20026;-54
2023/09/17 09:32:12;;;;;;;6.13;4.97;;;;;;;16.24;93.81;101322.50;5032860;28;20029;-56
2023/09/17 09:34:42;;;;;;;6.20;4.78;;;;;;;16.17;94.52;101329.06;5032814;28;20025;-57
2023/09/17 09:37:09;;;;;;;5.22;4.72;;;;;;;16.20;94.34;101317.78;5032640;28;20497;-57
2023/09/17 09:39:36;;;;;;;6.05;5.15;;;;;;;16.13;94.64;101326.00;5032844;28;20060;-49
2023/09/17 09:42:05;;;;;;;6.88;4.47;;;;;;;16.27;93.64;101326.63;5032952;28;20504;-50
2023/09/17 09:44:31;;;;;;;5.43;4.68;;;;;;;16.31;93.29;101327.78;5032957;28;20385;-45
2023/09/17 09:46:59;;;;;;;4.90;4.22;;;;;;;16.19;93.41;101319.66;5032671;28;20056;-45
2023/09/17 09:49:26;;;;;;;5.38;4.88;;;;;;;16.13;93.33;101322.47;5032647;28;20033;-45
2023/09/17 09:51:52;;;;;;;6.63;4.90;;;;;;;15.99;94.40;101327.22;5032801;28;20061;-49
2023/09/17 09:54:19;;;;;;;5.47;4.93;;;;;;;16.19;93.47;101324.25;5032723;28;20040;-46
2023/09/17 09:56:47;;;;;;;4.55;4.15;;;;;;;16.21;92.85;101328.38;5033332;28;20478;-46
2023/09/17 09:59:14;;;;;;;6.38;4.57;;;;;;;16.26;92.78;101327.66;5032648;28;20021;-45
2023/09/17 10:01:42;;;;;;;6.00;4.13;;;;;;;16.20;92.63;101331.28;5032681;28;20168;-45
2023/09/17 10:04:10;;;;;;;5.13;4.63;;;;;;;16.35;91.94;101337.09;5032603;28;20025;-46
2023/09/17 10:06:39;;;;;;;6.93;4.82;;;;;;;16.20;92.60;101337.50;5036135;28;20025;-46
2023/09/17 10:09:10;;;;;;;6.43;4.72;;;;;;;16.15;92.74;101329.28;5036350;28;20104;-46
2023/09/17 10:11:38;;;;;;;5.70;4.63;;;;;;;16.23;92.84;101336.25;5036420;28;20021;-46
2023/09/17 10:14:06;;;;;;;6.88;4.78;;;;;;;16.18;92.55;101325.31;5036534;28;20474;-46
2023/09/17 10:16:36;;;;;;;5.30;4.32;;;;;;;16.14;92.40;101329.50;5036073;28;20109;-45
2023/09/17 10:19:07;;;;;;;7.57;5.38;;;;;;;16.19;92.47;101321.53;5036108;28;20112;-45
2023/09/17 10:21:37;;;;;;;5.28;4.43;;;;;;;16.21;92.46;101324.81;5018473;28;20381;-46
2023/09/17 10:24:05;;;;;;;5.32;4.65;;;;;;;16.19;92.73;101326.94;5036161;28;20026;-45
2023/09/17 10:26:35;;;;;;;6.45;5.00;;;;;;;16.02;93.35;101324.91;5036080;28;20379;-46
2023/09/17 10:29:03;;;;;;;5.68;4.63;;;;;;;16.05;93.18;101318.22;5036075;28;20052;-46
2023/09/17 10:31:30;;;;;;;4.70;4.20;;;;;;;16.18;92.70;101326.13;5035878;28;20108;-47
2023/09/17 10:33:59;;;;;;;5.80;4.38;;;;;;;16.21;92.15;101328.38;5035827;28;20025;-46
2023/09/17 10:36:27;;;;;;;5.88;4.65;;;;;;;16.23;92.54;101320.03;5035887;28;20498;-45
2023/09/17 10:38:55;;;;;;;4.97;4.43;;;;;;;16.20;92.63;101320.47;5035855;28;20036;-46
2023/09/17 10:41:23;;;;;;;5.60;4.47;;;;;;;16.15;92.85;101323.88;5035914;28;20025;-47
2023/09/17 10:43:51;;;;;;;4.82;4.13;;;;;;;16.20;92.37;101325.88;5035757;28;20017;-45
2023/09/17 10:46:19;;;;;;;4.68;4.18;;;;;;;16.32;91.69;101321.31;5035615;28;20048;-45
2023/09/17 10:48:46;;;;;;;7.53;4.35;;;;;;;16.27;91.34;101319.34;5035790;28;20036;-50
2023/09/17 10:51:14;;;;;;;4.15;3.75;;;;;;;16.17;91.44;101320.97;5035843;28;20036;-46
2023/09/17 10:53:40;;;;;;;5.20;3.60;;;;;;;16.19;91.18;101319.66;5035731;28;20033;-46
2023/09/17 10:56:09;;;;;;;4.90;4.13;;;;;;;16.10;90.95;101321.88;5035540;28;20026;-45
2023/09/17 10:58:40;;;;;;;4.57;3.58;;;;;;;16.14;90.95;101322.22;5035487;28;20045;-46
2023/09/17 11:01:09;;;;;;;4.55;3.28;;;;;;;16.12;90.79;101323.53;5035416;28;20091;-50
2023/09/17 11:03:40;;;;;;;5.32;3.50;;;;;;;16.11;90.46;101325.41;5035319;28;20022;-48
2023/09/17 11:06:16;;;;;;;4.43;3.72;;;;;;;16.09;90.68;101330.19;5035478;28;20473;-46
2023/09/17 11:08:45;;;;;;;4.57;4.00;;;;;;;16.20;90.28;101325.88;5035279;28;20017;-48
2023/09/17 11:11:17;;;;;;;3.35;2.90;;;;;;;16.12;90.87;101323.53;5035393;28;20487;-46
2023/09/17 11:13:46;;;;;;;3.95;3.28;;;;;;;16.18;90.41;101322.59;5035343;28;20051;-49
2023/09/17 11:16:15;;;;;;;4.22;3.45;;;;;;;16.05;90.98;101327.16;5034763;28;20060;-49
2023/09/17 11:19:03;;;;;;;4.65;3.50;;;;;;;16.11;91.03;101322.72;5034965;28;20027;-47
2023/09/17 11:21:29;;;;;;;3.92;3.38;;;;;;;16.02;91.26;101324.09;5035194;28;20083;-48
2023/09/17 11:23:55;;;;;;;3.83;3.45;;;;;;;16.15;90.85;101314.94;5035450;28;20033;-47
2023/09/17 11:26:29;;;;;;;5.35;3.47;;;;;;;16.14;90.96;101316.00;5034932;28;20052;-46